< < Back
Terminal Aerodrome Forecast


Current Version              Previous Versions:   1  2  3  4  5  6  7  8  9  

Terminal Aerodrome Forecast

870
FTUS44 KBMX 022340
TAFMGM
TAF
KMGM 022340Z 0300/0324 22007KT 5SM SHRA VCTS BKN025CB
     FM030200 20005KT P6SM VCSH BKN040
     FM030600 27004KT 5SM BR SCT007 BKN015
     FM030900 27004KT 4SM BR BKN007
     FM031500 30007KT P6SM VCSH SCT015 BKN050=



Latest METAR

738
SAUS80 KWBC 030500
MTRMGM
METAR KMGM 030453Z AUTO 31003KT 10SM CLR 20/18 A2993 RMK AO2 SLP133
T02000183


USA.gov is the U.S. government's official web portal to all federal, state and local government web resources and services.